Patrick Air Force Base
KCOF : now visible

Airfield :











YOU CAN JOIN US ON...

 
LOGIN :

Register | Disclaimer

   EN    FR    IT 

 









Legend :    VFR   Marginal VFR   IFR   Intensive IFR   Very Intensive IFR
Visi :
Ceiling :
>= 8 km
>= 3000ft
5 to 8 km
1000 to 3000 ft
1500m to 5 km
500 to 1000 ft
800 to 1500m
200 to 500 ft
< 800m
< 200 ft
Symbols :   Thunderstorms  Fog  Heavy snow  Heavy precipitations  Wind > 20 kt






- Airport Elevation : 8 ft


KCOF - Patrick Air Force Base

CURRENT METAR :
  • 250355Z AUTO 17008KT 10SM CLR 28/24 A2993 RMK AO2 SLP140 T02770239 $

EXPIRED METARs :
  • 250255Z AUTO 18006KT 10SM CLR 28/24 A2994 RMK AO2 LTG DSNT NW SLP143 T02780242 52015 $
  • 250155Z AUTO 16011KT 10SM CLR 28/24 A2992 RMK AO2 SLP136 T02800240 $
  • 250055Z AUTO 16011KT 10SM CLR 28/24 A2991 RMK AO2 SLP133 T02770241 $
  • 242355Z AUTO 15013KT 10SM CLR 28/24 A2989 RMK AO2 SLP126 T02790239 10318 20279 57005 $

TAF TAF KCOF
Valid from the 25 at 02:00 until the 26 at 08:00 UTC


250200Z 2502/2608 16010KT 9999 SKC QNH2992INS
BECMG 2503/2504 VRB06KT 9999 SCT030 QNH2991INS
BECMG 2516/2517 11010KT 9999 SCT040 QNH2990INS
BECMG 2520/2521 10012KT 9999 FEW030 BKN150 QNH2991INS
BECMG 2600/2601 VRB06KT 9999 FEW030 QNH2993INS TX32/2520Z TN26/2511Z LAST NO AMDS AFT 2504 NEXT 2510
KZMA FIR / North America



MET'MAP, your aeronautical weather chart ! - Copyright ORBIFLY December 2007 - Disclaimer

ORBIFLY MET'MAP TEAM :

Programming & Development : Alexandra Zaïnal
Original concept : Baudouin d'Aumeries
Technical & hardware support : Manuel Goepfert
Assistance : Marc-Olivier Méhu




SOURCES & CREDITS :

   NOAA       Earth
Advisory